sensor_id;sensor_type;location;lat;lon;timestamp;pressure;altitude;pressure_sealevel;temperature;humidity
9899;BME280;4988;49.238;6.698;2023-01-28T00:00:23;99888.22;;;2.83;100.00
9899;BME280;4988;49.238;6.698;2023-01-28T00:02:48;99894.31;;;2.87;100.00
9899;BME280;4988;49.238;6.698;2023-01-28T00:05:13;99889.94;;;2.95;100.00
9899;BME280;4988;49.238;6.698;2023-01-28T00:07:39;99884.69;;;2.98;100.00
9899;BME280;4988;49.238;6.698;2023-01-28T00:10:04;99888.19;;;2.94;100.00
9899;BME280;4988;49.238;6.698;2023-01-28T00:12:30;99884.69;;;2.89;100.00
9899;BME280;4988;49.238;6.698;2023-01-28T00:14:55;99890.81;;;2.93;100.00
9899;BME280;4988;49.238;6.698;2023-01-28T00:17:21;99883.81;;;2.92;100.00
9899;BME280;4988;49.238;6.698;2023-01-28T00:19:46;99890.81;;;2.93;100.00
9899;BME280;4988;49.238;6.698;2023-01-28T00:22:11;99892.56;;;2.90;100.00
9899;BME280;4988;49.238;6.698;2023-01-28T00:24:37;99887.31;;;2.90;100.00
9899;BME280;4988;49.238;6.698;2023-01-28T00:27:02;99889.06;;;2.87;100.00
9899;BME280;4988;49.238;6.698;2023-01-28T00:29:27;99882.94;;;2.86;100.00
9899;BME280;4988;49.238;6.698;2023-01-28T00:31:53;99883.84;;;2.84;100.00
9899;BME280;4988;49.238;6.698;2023-01-28T00:34:19;99878.56;;;2.88;100.00
9899;BME280;4988;49.238;6.698;2023-01-28T00:36:45;99878.56;;;2.88;100.00
9899;BME280;4988;49.238;6.698;2023-01-28T00:39:22;99879.44;;;2.87;100.00
9899;BME280;4988;49.238;6.698;2023-01-28T00:41:48;99877.72;;;2.83;100.00
9899;BME280;4988;49.238;6.698;2023-01-28T00:44:13;99877.69;;;2.89;100.00
9899;BME280;4988;49.238;6.698;2023-01-28T00:46:38;99883.84;;;2.84;100.00
9899;BME280;4988;49.238;6.698;2023-01-28T00:49:06;99888.22;;;2.80;100.00
9899;BME280;4988;49.238;6.698;2023-01-28T00:51:31;99881.22;;;2.82;100.00
9899;BME280;4988;49.238;6.698;2023-01-28T00:53:56;99875.09;;;2.83;100.00
9899;BME280;4988;49.238;6.698;2023-01-28T00:56:22;99882.06;;;2.87;100.00
9899;BME280;4988;49.238;6.698;2023-01-28T00:58:47;99889.97;;;2.86;100.00
9899;BME280;4988;49.238;6.698;2023-01-28T01:01:24;99880.31;;;2.89;100.00
9899;BME280;4988;49.238;6.698;2023-01-28T01:03:50;99873.28;;;2.92;100.00
9899;BME280;4988;49.238;6.698;2023-01-28T01:06:23;99879.41;;;2.90;100.00
9899;BME280;4988;49.238;6.698;2023-01-28T01:08:49;99876.81;;;2.87;100.00
9899;BME280;4988;49.238;6.698;2023-01-28T01:11:15;99887.28;;;2.97;100.00
9899;BME280;4988;49.238;6.698;2023-01-28T01:13:41;99880.31;;;2.96;100.00
9899;BME280;4988;49.238;6.698;2023-01-28T01:16:09;99875.03;;;2.99;100.00
9899;BME280;4988;49.238;6.698;2023-01-28T01:18:35;99886.41;;;3.02;99.85
9899;BME280;4988;49.238;6.698;2023-01-28T01:21:01;99889.03;;;3.07;98.97
9899;BME280;4988;49.238;6.698;2023-01-28T01:23:28;99884.66;;;3.01;98.17
9899;BME280;4988;49.238;6.698;2023-01-28T01:25:54;99882.91;;;2.94;98.70
9899;BME280;4988;49.238;6.698;2023-01-28T01:28:20;99880.31;;;2.93;99.07
9899;BME280;4988;49.238;6.698;2023-01-28T01:30:47;99888.22;;;2.89;99.23
9899;BME280;4988;49.238;6.698;2023-01-28T01:33:13;99884.72;;;2.87;98.92
9899;BME280;4988;49.238;6.698;2023-01-28T01:35:38;99889.94;;;2.94;99.38
9899;BME280;4988;49.238;6.698;2023-01-28T01:38:04;99893.47;;;2.89;99.33
9899;BME280;4988;49.238;6.698;2023-01-28T01:40:29;99894.34;;;2.85;99.52
9899;BME280;4988;49.238;6.698;2023-01-28T01:42:55;99883.84;;;2.88;99.05
9899;BME280;4988;49.238;6.698;2023-01-28T01:45:20;99888.19;;;2.93;97.99
9899;BME280;4988;49.238;6.698;2023-01-28T01:48:03;99896.97;;;2.95;97.82
9899;BME280;4988;49.238;6.698;2023-01-28T01:50:30;99901.34;;;2.82;98.04
9899;BME280;4988;49.238;6.698;2023-01-28T01:53:01;99901.38;;;2.80;98.20
9899;BME280;4988;49.238;6.698;2023-01-28T01:55:30;99904.00;;;2.80;97.92
9899;BME280;4988;49.238;6.698;2023-01-28T01:58:01;99898.72;;;2.86;97.62
9899;BME280;4988;49.238;6.698;2023-01-28T02:00:28;99903.97;;;2.88;97.16
9899;BME280;4988;49.238;6.698;2023-01-28T02:02:53;99903.13;;;2.81;97.57
9899;BME280;4988;49.238;6.698;2023-01-28T02:05:21;99908.38;;;2.81;97.67
9899;BME280;4988;49.238;6.698;2023-01-28T02:07:49;99904.88;;;2.79;97.98
9899;BME280;4988;49.238;6.698;2023-01-28T02:10:16;99911.03;;;2.80;98.07
9899;BME280;4988;49.238;6.698;2023-01-28T02:12:49;99917.13;;;2.77;98.53
9899;BME280;4988;49.238;6.698;2023-01-28T02:15:19;99915.38;;;2.79;97.71
9899;BME280;4988;49.238;6.698;2023-01-28T02:17:46;99918.88;;;2.90;97.28
9899;BME280;4988;49.238;6.698;2023-01-28T02:20:21;99916.28;;;2.80;97.61
9899;BME280;4988;49.238;6.698;2023-01-28T02:28:49;99925.88;;;2.87;99.25
9899;BME280;4988;49.238;6.698;2023-01-28T02:31:47;99917.16;;;2.85;98.61
9899;BME280;4988;49.238;6.698;2023-01-28T02:37:14;99916.28;;;2.73;98.37
9899;BME280;4988;49.238;6.698;2023-01-28T02:39:48;99911.03;;;2.75;98.25
9899;BME280;4988;49.238;6.698;2023-01-28T02:42:27;99913.66;;;2.77;97.57
9899;BME280;4988;49.238;6.698;2023-01-28T02:44:53;99908.38;;;2.81;97.37
9899;BME280;4988;49.238;6.698;2023-01-28T02:47:19;99911.88;;;2.86;97.86
9899;BME280;4988;49.238;6.698;2023-01-28T02:50:07;99903.97;;;2.91;97.40
9899;BME280;4988;49.238;6.698;2023-01-28T02:52:55;99903.13;;;2.87;96.56
9899;BME280;4988;49.238;6.698;2023-01-28T02:55:52;99906.63;;;2.83;96.75
9899;BME280;4988;49.238;6.698;2023-01-28T03:01:23;99909.28;;;2.79;96.19
9899;BME280;4988;49.238;6.698;2023-01-28T03:04:03;99911.91;;;2.79;96.54
9899;BME280;4988;49.238;6.698;2023-01-28T03:06:37;99907.50;;;2.73;96.76
9899;BME280;4988;49.238;6.698;2023-01-28T03:09:06;99913.66;;;2.72;97.28
9899;BME280;4988;49.238;6.698;2023-01-28T03:11:59;99911.88;;;2.85;97.09
9899;BME280;4988;49.238;6.698;2023-01-28T03:14:53;99907.50;;;2.82;96.13
9899;BME280;4988;49.238;6.698;2023-01-28T03:18:00;99904.91;;;2.76;96.18
9899;BME280;4988;49.238;6.698;2023-01-28T03:20:50;99917.16;;;2.80;96.50
9899;BME280;4988;49.238;6.698;2023-01-28T03:23:46;99920.66;;;2.76;96.18
9899;BME280;4988;49.238;6.698;2023-01-28T03:26:35;99926.78;;;2.72;96.38
9899;BME280;4988;49.238;6.698;2023-01-28T03:29:22;99915.38;;;2.79;96.45
9899;BME280;4988;49.238;6.698;2023-01-28T03:32:07;99928.53;;;2.84;95.91
9899;BME280;4988;49.238;6.698;2023-01-28T03:34:52;99914.50;;;2.76;95.24
9899;BME280;4988;49.238;6.698;2023-01-28T03:37:36;99926.78;;;2.78;95.58
9899;BME280;4988;49.238;6.698;2023-01-28T03:40:04;99920.66;;;2.76;95.82
9899;BME280;4988;49.238;6.698;2023-01-28T03:42:30;99912.75;;;2.74;95.95
9899;BME280;4988;49.238;6.698;2023-01-28T03:44:55;99919.78;;;2.83;95.49
9899;BME280;4988;49.238;6.698;2023-01-28T03:47:23;99924.16;;;2.81;95.54
9899;BME280;4988;49.238;6.698;2023-01-28T03:49:50;99920.63;;;2.81;95.31
9899;BME280;4988;49.238;6.698;2023-01-28T03:52:18;99928.53;;;2.81;95.44
9899;BME280;4988;49.238;6.698;2023-01-28T03:54:45;99939.94;;;2.75;94.90
9899;BME280;4988;49.238;6.698;2023-01-28T03:57:18;99932.91;;;2.71;95.15
9899;BME280;4988;49.238;6.698;2023-01-28T03:59:44;99937.31;;;2.70;95.96
9899;BME280;4988;49.238;6.698;2023-01-28T04:02:10;99932.06;;;2.69;95.92
9899;BME280;4988;49.238;6.698;2023-01-28T04:04:39;99948.72;;;2.68;95.77
9899;BME280;4988;49.238;6.698;2023-01-28T04:07:06;99946.06;;;2.69;95.95
9899;BME280;4988;49.238;6.698;2023-01-28T04:09:36;99952.19;;;2.79;95.29
9899;BME280;4988;49.238;6.698;2023-01-28T04:12:02;99954.81;;;2.79;94.55
9899;BME280;4988;49.238;6.698;2023-01-28T04:14:27;99957.47;;;2.70;95.29
9899;BME280;4988;49.238;6.698;2023-01-28T04:16:53;99960.97;;;2.66;95.86
9899;BME280;4988;49.238;6.698;2023-01-28T04:19:21;99957.47;;;2.67;95.15
9899;BME280;4988;49.238;6.698;2023-01-28T04:21:47;99956.59;;;2.65;94.83
9899;BME280;4988;49.238;6.698;2023-01-28T04:24:13;99965.34;;;2.71;95.05
9899;BME280;4988;49.238;6.698;2023-01-28T04:26:39;99967.09;;;2.80;94.99
9899;BME280;4988;49.238;6.698;2023-01-28T04:29:04;99963.59;;;2.78;94.79
9899;BME280;4988;49.238;6.698;2023-01-28T04:31:30;99966.22;;;2.75;94.17
9899;BME280;4988;49.238;6.698;2023-01-28T04:33:55;99967.97;;;2.79;94.27
9899;BME280;4988;49.238;6.698;2023-01-28T04:36:21;99974.13;;;2.75;94.22
9899;BME280;4988;49.238;6.698;2023-01-28T04:38:46;99973.25;;;2.71;94.53
9899;BME280;4988;49.238;6.698;2023-01-28T04:41:12;99978.50;;;2.70;95.25
9899;BME280;4988;49.238;6.698;2023-01-28T04:43:37;99982.88;;;2.71;95.05
9899;BME280;4988;49.238;6.698;2023-01-28T04:46:02;99982.91;;;2.60;95.67
9899;BME280;4988;49.238;6.698;2023-01-28T04:48:28;99987.28;;;2.63;95.83
9899;BME280;4988;49.238;6.698;2023-01-28T04:50:55;99987.28;;;2.69;96.29
9899;BME280;4988;49.238;6.698;2023-01-28T04:53:20;99984.66;;;2.63;96.44
9899;BME280;4988;49.238;6.698;2023-01-28T04:55:45;99996.00;;;2.58;97.45
9899;BME280;4988;49.238;6.698;2023-01-28T04:58:11;100001.25;;;2.52;97.90
9899;BME280;4988;49.238;6.698;2023-01-28T05:00:36;99991.66;;;2.53;98.61
9899;BME280;4988;49.238;6.698;2023-01-28T05:03:01;99983.75;;;2.50;99.35
9899;BME280;4988;49.238;6.698;2023-01-28T05:05:27;99992.50;;;2.47;98.70
9899;BME280;4988;49.238;6.698;2023-01-28T05:07:54;99993.38;;;2.51;98.68
9899;BME280;4988;49.238;6.698;2023-01-28T05:10:20;99996.03;;;2.48;98.89
9899;BME280;4988;49.238;6.698;2023-01-28T05:12:46;99992.50;;;2.55;100.00
9899;BME280;4988;49.238;6.698;2023-01-28T05:15:13;99996.88;;;2.56;99.79
9899;BME280;4988;49.238;6.698;2023-01-28T05:17:38;99992.50;;;2.53;100.00
9899;BME280;4988;49.238;6.698;2023-01-28T05:20:05;99990.75;;;2.51;99.40
9899;BME280;4988;49.238;6.698;2023-01-28T05:22:30;99995.16;;;2.52;100.00
9899;BME280;4988;49.238;6.698;2023-01-28T05:24:55;100001.25;;;2.58;99.41
9899;BME280;4988;49.238;6.698;2023-01-28T05:27:21;100001.25;;;2.58;98.99
9899;BME280;4988;49.238;6.698;2023-01-28T05:29:47;100007.44;;;2.64;98.59
9899;BME280;4988;49.238;6.698;2023-01-28T05:32:12;100011.78;;;2.62;98.49
9899;BME280;4988;49.238;6.698;2023-01-28T05:34:37;100010.94;;;2.67;98.42
9899;BME280;4988;49.238;6.698;2023-01-28T05:37:02;100003.91;;;2.66;97.10
9899;BME280;4988;49.238;6.698;2023-01-28T05:39:28;100012.66;;;2.61;96.91
9899;BME280;4988;49.238;6.698;2023-01-28T05:41:53;100009.19;;;2.60;97.00
9899;BME280;4988;49.238;6.698;2023-01-28T05:44:19;100008.28;;;2.60;96.40
9899;BME280;4988;49.238;6.698;2023-01-28T05:46:44;100010.91;;;2.61;96.64
9899;BME280;4988;49.238;6.698;2023-01-28T05:49:11;100007.41;;;2.56;96.56
9899;BME280;4988;49.238;6.698;2023-01-28T05:51:41;100009.16;;;2.58;96.43
9899;BME280;4988;49.238;6.698;2023-01-28T05:54:07;100008.28;;;2.63;95.60
9899;BME280;4988;49.238;6.698;2023-01-28T05:56:33;100010.06;;;2.64;95.00
9899;BME280;4988;49.238;6.698;2023-01-28T05:59:01;100014.41;;;2.58;95.05
9899;BME280;4988;49.238;6.698;2023-01-28T06:01:26;100019.69;;;2.54;95.35
9899;BME280;4988;49.238;6.698;2023-01-28T06:03:51;100018.81;;;2.56;95.17
9899;BME280;4988;49.238;6.698;2023-01-28T06:06:16;100023.19;;;2.61;94.68
9899;BME280;4988;49.238;6.698;2023-01-28T06:08:42;100021.44;;;2.56;95.06
9899;BME280;4988;49.238;6.698;2023-01-28T06:11:07;100024.94;;;2.54;95.13
9899;BME280;4988;49.238;6.698;2023-01-28T06:13:32;100027.56;;;2.55;94.91
9899;BME280;4988;49.238;6.698;2023-01-28T06:15:58;100022.28;;;2.51;94.46
9899;BME280;4988;49.238;6.698;2023-01-28T06:18:23;100033.69;;;2.48;94.03
9899;BME280;4988;49.238;6.698;2023-01-28T06:20:49;100033.69;;;2.50;94.52
9899;BME280;4988;49.238;6.698;2023-01-28T06:23:15;100041.59;;;2.51;93.65
9899;BME280;4988;49.238;6.698;2023-01-28T06:25:40;100041.56;;;2.44;93.55
9899;BME280;4988;49.238;6.698;2023-01-28T06:28:05;100043.34;;;2.55;93.95
9899;BME280;4988;49.238;6.698;2023-01-28T06:30:31;100044.22;;;2.57;93.48
9899;BME280;4988;49.238;6.698;2023-01-28T06:32:56;100048.56;;;2.58;93.45
9899;BME280;4988;49.238;6.698;2023-01-28T06:35:22;100051.22;;;2.54;93.13
9899;BME280;4988;49.238;6.698;2023-01-28T06:37:47;100052.94;;;2.55;93.24
9899;BME280;4988;49.238;6.698;2023-01-28T06:40:12;100059.06;;;2.46;93.16
9899;BME280;4988;49.238;6.698;2023-01-28T06:42:38;100058.22;;;2.46;93.63
9899;BME280;4988;49.238;6.698;2023-01-28T06:45:03;100054.72;;;2.57;93.10
9899;BME280;4988;49.238;6.698;2023-01-28T06:47:28;100056.47;;;2.57;92.89
9899;BME280;4988;49.238;6.698;2023-01-28T06:49:54;100078.38;;;2.62;92.48
9899;BME280;4988;49.238;6.698;2023-01-28T06:52:19;100064.34;;;2.55;92.54
9899;BME280;4988;49.238;6.698;2023-01-28T06:54:44;100067.81;;;2.44;93.16
9899;BME280;4988;49.238;6.698;2023-01-28T06:57:10;100069.59;;;2.46;93.97
9899;BME280;4988;49.238;6.698;2023-01-28T06:59:35;100069.59;;;2.51;93.32
9899;BME280;4988;49.238;6.698;2023-01-28T07:02:00;100074.84;;;2.58;93.24
9899;BME280;4988;49.238;6.698;2023-01-28T07:04:26;100068.72;;;2.61;92.67
9899;BME280;4988;49.238;6.698;2023-01-28T07:06:51;100078.38;;;2.54;91.90
9899;BME280;4988;49.238;6.698;2023-01-28T07:09:16;100079.25;;;2.52;91.78
9899;BME280;4988;49.238;6.698;2023-01-28T07:11:41;100078.34;;;2.48;91.61
9899;BME280;4988;49.238;6.698;2023-01-28T07:14:07;100082.75;;;2.51;91.89
9899;BME280;4988;49.238;6.698;2023-01-28T07:16:32;100080.13;;;2.48;92.21
9899;BME280;4988;49.238;6.698;2023-01-28T07:18:57;100075.72;;;2.50;91.24
9899;BME280;4988;49.238;6.698;2023-01-28T07:21:23;100082.75;;;2.48;91.46
9899;BME280;4988;49.238;6.698;2023-01-28T07:23:48;100079.22;;;2.49;91.88
9899;BME280;4988;49.238;6.698;2023-01-28T07:26:13;100082.75;;;2.49;91.04
9899;BME280;4988;49.238;6.698;2023-01-28T07:28:39;100079.25;;;2.52;90.80
9899;BME280;4988;49.238;6.698;2023-01-28T07:31:05;100084.50;;;2.53;90.82
9899;BME280;4988;49.238;6.698;2023-01-28T07:33:30;100082.72;;;2.52;90.41
9899;BME280;4988;49.238;6.698;2023-01-28T07:35:55;100077.47;;;2.45;90.65
9899;BME280;4988;49.238;6.698;2023-01-28T07:38:21;100085.34;;;2.40;90.63
9899;BME280;4988;49.238;6.698;2023-01-28T07:40:46;100095.84;;;2.40;90.79
9899;BME280;4988;49.238;6.698;2023-01-28T07:43:12;100101.97;;;2.45;91.06
9899;BME280;4988;49.238;6.698;2023-01-28T07:45:38;100096.75;;;2.50;91.35
9899;BME280;4988;49.238;6.698;2023-01-28T07:48:05;100094.13;;;2.47;91.42
9899;BME280;4988;49.238;6.698;2023-01-28T07:50:33;100108.13;;;2.44;91.27
9899;BME280;4988;49.238;6.698;2023-01-28T07:53:02;100108.13;;;2.47;91.41
9899;BME280;4988;49.238;6.698;2023-01-28T07:55:28;100102.88;;;2.47;91.24
9899;BME280;4988;49.238;6.698;2023-01-28T07:57:58;100100.25;;;2.53;91.62
9899;BME280;4988;49.238;6.698;2023-01-28T08:00:25;100105.50;;;2.53;91.39
9899;BME280;4988;49.238;6.698;2023-01-28T08:02:59;100110.78;;;2.50;90.97
9899;BME280;4988;49.238;6.698;2023-01-28T08:05:28;100115.13;;;2.45;90.54
9899;BME280;4988;49.238;6.698;2023-01-28T08:07:56;100107.25;;;2.42;90.50
9899;BME280;4988;49.238;6.698;2023-01-28T08:10:22;100112.53;;;2.56;90.89
9899;BME280;4988;49.238;6.698;2023-01-28T08:13:06;100116.88;;;2.46;90.79
9899;BME280;4988;49.238;6.698;2023-01-28T08:15:32;100118.69;;;2.56;90.85
9899;BME280;4988;49.238;6.698;2023-01-28T08:17:58;100117.78;;;2.56;90.69
9899;BME280;4988;49.238;6.698;2023-01-28T08:20:25;100124.81;;;2.60;89.99
9899;BME280;4988;49.238;6.698;2023-01-28T08:22:51;100120.44;;;2.57;89.58
9899;BME280;4988;49.238;6.698;2023-01-28T08:25:16;100113.44;;;2.63;90.03
9899;BME280;4988;49.238;6.698;2023-01-28T08:27:42;100117.81;;;2.67;90.13
9899;BME280;4988;49.238;6.698;2023-01-28T08:30:07;100120.44;;;2.64;90.25
9899;BME280;4988;49.238;6.698;2023-01-28T08:32:36;100116.06;;;2.70;89.90
9899;BME280;4988;49.238;6.698;2023-01-28T08:35:02;100119.56;;;2.69;89.88
9899;BME280;4988;49.238;6.698;2023-01-28T08:37:27;100117.81;;;2.73;90.07
9899;BME280;4988;49.238;6.698;2023-01-28T08:39:53;100115.19;;;2.73;90.14
9899;BME280;4988;49.238;6.698;2023-01-28T08:42:18;100125.69;;;2.67;88.80
9899;BME280;4988;49.238;6.698;2023-01-28T08:44:44;100117.81;;;2.67;87.32
9899;BME280;4988;49.238;6.698;2023-01-28T08:47:09;100115.19;;;2.64;87.43
9899;BME280;4988;49.238;6.698;2023-01-28T08:49:35;100123.09;;;2.71;86.61
9899;BME280;4988;49.238;6.698;2023-01-28T08:52:00;100125.72;;;2.65;86.41
9899;BME280;4988;49.238;6.698;2023-01-28T08:54:25;100125.72;;;2.64;87.27
9899;BME280;4988;49.238;6.698;2023-01-28T08:56:51;100122.22;;;2.66;87.54
9899;BME280;4988;49.238;6.698;2023-01-28T08:59:16;100129.22;;;2.69;88.01
9899;BME280;4988;49.238;6.698;2023-01-28T09:01:42;100121.34;;;2.75;87.66
9899;BME280;4988;49.238;6.698;2023-01-28T09:04:07;100125.72;;;2.76;86.17
9899;BME280;4988;49.238;6.698;2023-01-28T09:06:33;100138.88;;;2.76;86.55
9899;BME280;4988;49.238;6.698;2023-01-28T09:08:59;100141.50;;;2.81;86.17
9899;BME280;4988;49.238;6.698;2023-01-28T09:11:25;100143.28;;;2.83;87.01
9899;BME280;4988;49.238;6.698;2023-01-28T09:13:50;100143.25;;;2.82;86.10
9899;BME280;4988;49.238;6.698;2023-01-28T09:16:16;100133.63;;;2.85;85.96
9899;BME280;4988;49.238;6.698;2023-01-28T09:18:41;100154.63;;;2.81;85.88
9899;BME280;4988;49.238;6.698;2023-01-28T09:21:06;100141.50;;;2.79;85.56
9899;BME280;4988;49.238;6.698;2023-01-28T09:23:59;100147.63;;;2.67;85.59
9899;BME280;4988;49.238;6.698;2023-01-28T09:26:25;100149.34;;;2.68;86.54
9899;BME280;4988;49.238;6.698;2023-01-28T09:28:50;100153.75;;;2.71;85.87
9899;BME280;4988;49.238;6.698;2023-01-28T09:31:15;100157.25;;;2.65;85.88
9899;BME280;4988;49.238;6.698;2023-01-28T09:33:41;100158.13;;;2.70;86.87
9899;BME280;4988;49.238;6.698;2023-01-28T09:36:09;100150.25;;;2.78;86.55
9899;BME280;4988;49.238;6.698;2023-01-28T09:38:35;100160.78;;;2.84;85.75
9899;BME280;4988;49.238;6.698;2023-01-28T09:41:08;100158.16;;;2.80;86.06
9899;BME280;4988;49.238;6.698;2023-01-28T09:46:04;100166.91;;;2.72;85.25
9899;BME280;4988;49.238;6.698;2023-01-28T09:48:37;100166.03;;;2.77;83.74
9899;BME280;4988;49.238;6.698;2023-01-28T09:51:09;100163.38;;;2.70;83.77
9899;BME280;4988;49.238;6.698;2023-01-28T09:53:39;100165.16;;;2.71;84.13
9899;BME280;4988;49.238;6.698;2023-01-28T09:56:30;100170.41;;;2.73;83.59
9899;BME280;4988;49.238;6.698;2023-01-28T09:59:20;100178.31;;;2.76;83.50
9899;BME280;4988;49.238;6.698;2023-01-28T10:02:03;100181.81;;;2.81;83.03
9899;BME280;4988;49.238;6.698;2023-01-28T10:15:53;100189.72;;;2.81;83.01
9899;BME280;4988;49.238;6.698;2023-01-28T10:18:34;100187.94;;;2.82;82.83
9899;BME280;4988;49.238;6.698;2023-01-28T10:21:17;100194.09;;;2.87;82.59
9899;BME280;4988;49.238;6.698;2023-01-28T10:24:15;100199.38;;;2.82;83.30
9899;BME280;4988;49.238;6.698;2023-01-28T10:26:43;100191.47;;;2.84;83.80
9899;BME280;4988;49.238;6.698;2023-01-28T10:29:17;100180.94;;;2.87;84.36
9899;BME280;4988;49.238;6.698;2023-01-28T10:31:51;100183.63;;;2.95;83.45
9899;BME280;4988;49.238;6.698;2023-01-28T10:34:18;100180.97;;;2.93;81.76
9899;BME280;4988;49.238;6.698;2023-01-28T10:36:43;100185.38;;;2.96;82.24
9899;BME280;4988;49.238;6.698;2023-01-28T10:39:15;100181.84;;;2.90;82.33
9899;BME280;4988;49.238;6.698;2023-01-28T10:41:45;100185.34;;;2.93;82.36
9899;BME280;4988;49.238;6.698;2023-01-28T10:44:24;100186.25;;;3.02;81.90
9899;BME280;4988;49.238;6.698;2023-01-28T10:46:52;100188.03;;;3.08;82.79
9899;BME280;4988;49.238;6.698;2023-01-28T10:49:27;100193.28;;;3.08;81.70
9899;BME280;4988;49.238;6.698;2023-01-28T10:51:52;100195.88;;;2.99;81.15
9899;BME280;4988;49.238;6.698;2023-01-28T10:54:27;100185.38;;;3.02;81.76
9899;BME280;4988;49.238;6.698;2023-01-28T10:56:56;100195.00;;;3.09;82.16
9899;BME280;4988;49.238;6.698;2023-01-28T10:59:37;100195.91;;;3.10;81.93
9899;BME280;4988;49.238;6.698;2023-01-28T11:02:21;100194.16;;;3.13;81.84
9899;BME280;4988;49.238;6.698;2023-01-28T11:05:16;100193.28;;;3.08;80.91
9899;BME280;4988;49.238;6.698;2023-01-28T11:07:46;100199.41;;;3.10;80.37
9899;BME280;4988;49.238;6.698;2023-01-28T11:10:38;100194.16;;;3.16;80.76
9899;BME280;4988;49.238;6.698;2023-01-28T11:13:05;100188.03;;;3.20;80.12
9899;BME280;4988;49.238;6.698;2023-01-28T11:15:32;100197.66;;;3.12;80.26
9899;BME280;4988;49.238;6.698;2023-01-28T11:18:00;100196.81;;;3.18;80.74
9899;BME280;4988;49.238;6.698;2023-01-28T11:20:28;100190.63;;;3.19;80.83
9899;BME280;4988;49.238;6.698;2023-01-28T11:22:56;100197.69;;;3.21;80.33
9899;BME280;4988;49.238;6.698;2023-01-28T11:25:35;100191.53;;;3.18;81.01
9899;BME280;4988;49.238;6.698;2023-01-28T11:28:04;100184.53;;;3.29;80.47
9899;BME280;4988;49.238;6.698;2023-01-28T11:30:34;100181.88;;;3.31;80.74
9899;BME280;4988;49.238;6.698;2023-01-28T11:33:23;100189.81;;;3.34;79.25
9899;BME280;4988;49.238;6.698;2023-01-28T11:36:02;100181.03;;;3.32;79.88
9899;BME280;4988;49.238;6.698;2023-01-28T11:38:29;100182.78;;;3.41;80.79
9899;BME280;4988;49.238;6.698;2023-01-28T11:40:57;100185.41;;;3.45;80.61
9899;BME280;4988;49.238;6.698;2023-01-28T11:43:25;100181.00;;;3.41;80.21
9899;BME280;4988;49.238;6.698;2023-01-28T11:51:35;100181.00;;;3.35;79.54
9899;BME280;4988;49.238;6.698;2023-01-28T11:57:20;100173.13;;;3.38;78.95
9899;BME280;4988;49.238;6.698;2023-01-28T12:02:48;100173.09;;;3.35;79.67
9899;BME280;4988;49.238;6.698;2023-01-28T12:12:06;100167.84;;;3.50;79.01
9899;BME280;4988;49.238;6.698;2023-01-28T12:20:36;100154.69;;;3.46;79.54
9899;BME280;4988;49.238;6.698;2023-01-28T12:23:13;100153.81;;;3.45;79.41
9899;BME280;4988;49.238;6.698;2023-01-28T12:28:43;100147.69;;;3.48;78.97
9899;BME280;4988;49.238;6.698;2023-01-28T12:40:18;100144.16;;;3.46;79.39
9899;BME280;4988;49.238;6.698;2023-01-28T12:43:14;100142.41;;;3.54;78.92
9899;BME280;4988;49.238;6.698;2023-01-28T12:46:50;100143.28;;;3.48;79.01
9899;BME280;4988;49.238;6.698;2023-01-28T12:52:17;100136.25;;;3.41;77.81
9899;BME280;4988;49.238;6.698;2023-01-28T12:57:27;100143.31;;;3.50;77.68
9899;BME280;4988;49.238;6.698;2023-01-28T13:03:39;100145.03;;;3.32;76.91
9899;BME280;4988;49.238;6.698;2023-01-28T13:05:47;100144.19;;;3.38;77.09
9899;BME280;4988;49.238;6.698;2023-01-28T13:10:48;100145.06;;;3.18;75.81
9899;BME280;4988;49.238;6.698;2023-01-28T13:13:35;100154.72;;;3.18;76.53
9899;BME280;4988;49.238;6.698;2023-01-28T13:16:02;100150.31;;;3.25;76.78
9899;BME280;4988;49.238;6.698;2023-01-28T13:24:01;100157.34;;;3.19;75.94
9899;BME280;4988;49.238;6.698;2023-01-28T13:26:35;100158.19;;;3.20;76.86
9899;BME280;4988;49.238;6.698;2023-01-28T13:29:18;100147.66;;;3.15;77.09
9899;BME280;4988;49.238;6.698;2023-01-28T13:31:46;100157.31;;;3.21;77.44
9899;BME280;4988;49.238;6.698;2023-01-28T13:34:30;100167.84;;;3.26;76.96
9899;BME280;4988;49.238;6.698;2023-01-28T13:37:00;100163.47;;;3.23;76.36
9899;BME280;4988;49.238;6.698;2023-01-28T13:39:28;100169.59;;;3.22;77.20
9899;BME280;4988;49.238;6.698;2023-01-28T13:42:18;100178.38;;;3.19;76.75
9899;BME280;4988;49.238;6.698;2023-01-28T13:44:44;100176.63;;;3.31;77.41
9899;BME280;4988;49.238;6.698;2023-01-28T13:49:41;100176.63;;;3.31;76.17
9899;BME280;4988;49.238;6.698;2023-01-28T13:52:15;100187.16;;;3.21;76.68
9899;BME280;4988;49.238;6.698;2023-01-28T14:13:59;100207.31;;;3.21;77.20
9899;BME280;4988;49.238;6.698;2023-01-28T14:19:18;100215.22;;;3.12;77.40
9899;BME280;4988;49.238;6.698;2023-01-28T14:21:44;100221.34;;;3.12;76.86
9899;BME280;4988;49.238;6.698;2023-01-28T14:24:17;100221.34;;;3.17;77.14
9899;BME280;4988;49.238;6.698;2023-01-28T14:27:07;100216.94;;;3.05;77.14
9899;BME280;4988;49.238;6.698;2023-01-28T14:32:25;100226.56;;;3.01;77.56
9899;BME280;4988;49.238;6.698;2023-01-28T14:34:53;100213.41;;;3.03;77.85
9899;BME280;4988;49.238;6.698;2023-01-28T14:37:23;100216.03;;;3.03;77.84
9899;BME280;4988;49.238;6.698;2023-01-28T14:39:50;100216.94;;;3.02;77.83
9899;BME280;4988;49.238;6.698;2023-01-28T14:42:22;100221.31;;;3.03;77.03
9899;BME280;4988;49.238;6.698;2023-01-28T14:47:49;100215.19;;;3.02;78.01
9899;BME280;4988;49.238;6.698;2023-01-28T14:57:37;100229.25;;;3.11;77.89
9899;BME280;4988;49.238;6.698;2023-01-28T14:59:53;100235.34;;;3.13;78.09
9899;BME280;4988;49.238;6.698;2023-01-28T15:02:24;100221.31;;;3.01;78.71
9899;BME280;4988;49.238;6.698;2023-01-28T15:04:51;100225.72;;;3.10;78.34
9899;BME280;4988;49.238;6.698;2023-01-28T15:07:25;100233.59;;;3.02;77.29
9899;BME280;4988;49.238;6.698;2023-01-28T15:10:06;100223.94;;;3.00;77.88
9899;BME280;4988;49.238;6.698;2023-01-28T15:12:34;100226.56;;;3.01;77.59
9899;BME280;4988;49.238;6.698;2023-01-28T15:15:20;100214.28;;;3.00;78.06
9899;BME280;4988;49.238;6.698;2023-01-28T15:17:48;100221.28;;;2.90;78.49
9899;BME280;4988;49.238;6.698;2023-01-28T15:20:17;100219.56;;;2.96;78.33
9899;BME280;4988;49.238;6.698;2023-01-28T15:22:43;100231.81;;;2.89;78.46
9899;BME280;4988;49.238;6.698;2023-01-28T15:25:17;100222.19;;;2.89;78.73
9899;BME280;4988;49.238;6.698;2023-01-28T15:27:43;100216.03;;;2.89;79.12
9899;BME280;4988;49.238;6.698;2023-01-28T15:30:26;100215.16;;;2.88;79.23
9899;BME280;4988;49.238;6.698;2023-01-28T15:35:26;100215.16;;;2.82;79.07
9899;BME280;4988;49.238;6.698;2023-01-28T15:37:51;100221.25;;;2.84;79.47